Lake Superior Provincial Park, Ontario

Past 24 Hour Conditions

This table is a summary of hourly weather conditions for the past 24 hours. This summary includes the following parameters: temperature, humidity, dew point, wind speed and direction, air pressure, visibility and/or wind chill and humidex.
Date / Time
(EDT)
Conditions Temp (°C) Humidity (%) Dew Point (°C) Wind (km/h) Pressure (kPa) Visibility (km)
30 July 2014
11:00 N/A 16 70 10 WNW 7 101.5 N/A
10:00 N/A 14 80 10 WNW 7 101.5 N/A
9:00 N/A 12 95 11 WSW 3 101.5 N/A
8:00 N/A 8 99 8 SE 4 101.5 N/A
7:00 N/A 6 98 6 SSE 5 101.5 N/A
6:00 N/A 5   98 5 S 2 101.5 N/A
5:00 N/A 5   98 5 calm 101.5 N/A
4:00 N/A 6 97 5 SSE 2 101.5 N/A
3:00 N/A 7 97 6 calm 101.5 N/A
2:00 N/A 8 98 7 calm 101.5 N/A
1:00 N/A 8 97 7 SSE 4 101.4 N/A
00:00 N/A 9 96 8 calm 101.4 N/A
29 July 2014
23:00 N/A 10 95 9 calm 101.5 N/A
22:00 N/A 12 94 11 calm 101.4 N/A
21:00 N/A 13 93 12 calm 101.4 N/A
20:00 N/A 14 88 12 NNE 3 101.4 N/A
19:00 N/A 15 80 12 N 3 101.3 N/A
18:00 N/A 14 83 11 W 5 101.4 N/A
17:00 N/A 17 67 11 WNW 13 101.3 N/A
16:00 N/A 16 74 11 W 7 101.3 N/A
15:00 N/A 18 68 12 NW 6 101.3 N/A
14:00 N/A 19   66 13 WNW 4 101.3 N/A
13:00 N/A 19   60 11 N 9 101.3 N/A
12:00 N/A 18 68 12 NNW 6 101.3 N/A
11:00 N/A 17 75 12 N 6 101.3 N/A
N/A
Not available
 ↑ 
Highest temperature
 ↓ 
Lowest temperature

If you require additional historical weather information, please visit Climate Data Online.